Time;durP1;ratioP1;P1;durP2;ratioP2;P2;SDS_P1;SDS_P2;PMS_P1;PMS_P2;Temp;Humidity;BMP_temperature;BMP_pressure;BME280_temperature;BME280_humidity;BME280_pressure;Samples;Min_cycle;Max_cycle;Signal;HPM_P1;HPM_P2
2022/10/04 00:00:11;;;;;;;5.60;2.35;;;;;;;19.44;52.56;102291.28;5064351;28;20036;-63
2022/10/04 00:02:43;;;;;;;5.80;2.28;;;;;;;19.50;52.55;102298.81;5063803;28;20033;-65
2022/10/04 00:05:14;;;;;;;4.97;2.60;;;;;;;19.45;52.55;102295.59;5063982;28;20028;-64
2022/10/04 00:07:50;;;;;;;5.78;2.75;;;;;;;19.48;52.56;102302.50;5063751;28;20042;-62
2022/10/04 00:10:23;;;;;;;5.07;2.53;;;;;;;19.46;52.59;102294.66;5064026;28;20029;-64
2022/10/04 00:12:57;;;;;;;5.78;2.90;;;;;;;19.43;52.51;102289.56;5063995;28;20085;-64
2022/10/04 00:15:31;;;;;;;5.72;2.60;;;;;;;19.42;52.50;102287.03;5063846;28;20040;-61
2022/10/04 00:18:05;;;;;;;;;;;;;;;19.44;52.67;102304.50;5064003;28;20126;-63
2022/10/04 00:20:56;;;;;;;5.57;2.53;;;;;;;19.46;52.64;102291.19;5063545;28;19908;-64
2022/10/04 00:23:21;;;;;;;6.13;2.30;;;;;;;19.45;52.48;102287.66;5063588;28;20094;-63
2022/10/04 00:25:47;;;;;;;4.00;2.37;;;;;;;19.30;52.53;102260.44;5063754;28;20036;-63
2022/10/04 00:28:24;;;;;;;4.82;2.50;;;;;;;19.44;52.50;102278.06;5063710;28;20064;-64
2022/10/04 00:31:25;;;;;;;5.35;2.42;;;;;;;19.43;52.47;102280.81;5063182;28;20411;-63
2022/10/04 00:34:00;;;;;;;4.85;2.60;;;;;;;19.42;52.61;102273.81;5063368;28;20526;-63
2022/10/04 00:36:36;;;;;;;5.35;2.53;;;;;;;19.41;52.46;102267.69;5063375;28;20039;-62
2022/10/04 00:39:08;;;;;;;4.95;2.50;;;;;;;19.41;52.55;102270.31;5061954;28;20036;-63
2022/10/04 00:41:43;;;;;;;5.75;2.80;;;;;;;19.41;52.25;102267.69;5063270;28;20070;-62
2022/10/04 00:44:20;;;;;;;6.47;2.63;;;;;;;19.30;52.43;102252.50;5063564;28;20547;-62
2022/10/04 00:46:47;;;;;;;5.00;2.42;;;;;;;19.33;52.45;102262.88;5063127;28;20112;-62
2022/10/04 00:49:16;;;;;;;8.50;2.80;;;;;;;19.39;52.33;102277.47;5062955;28;20384;-62
2022/10/04 00:51:47;;;;;;;5.72;2.88;;;;;;;19.35;52.44;102276.00;5062925;28;20048;-61
2022/10/04 00:54:25;;;;;;;5.35;2.47;;;;;;;19.34;52.04;102267.22;5062317;28;20040;-63
2022/10/04 00:56:54;;;;;;;4.85;2.65;;;;;;;19.35;52.32;102268.06;5062955;28;20167;-64
2022/10/04 00:59:28;;;;;;;5.28;2.45;;;;;;;19.35;52.15;102268.06;5062949;28;20111;-64
2022/10/04 01:02:00;;;;;;;4.40;2.30;;;;;;;19.29;52.49;102253.44;5062739;28;20102;-63
2022/10/04 01:04:38;;;;;;;6.20;2.80;;;;;;;19.32;52.33;102249.75;5062811;28;20048;-63
2022/10/04 01:07:05;;;;;;;4.82;2.67;;;;;;;19.27;52.31;102238.66;5063018;28;20024;-63
2022/10/04 01:09:40;;;;;;;5.60;2.60;;;;;;;19.32;52.27;102247.13;5062606;28;20441;-63
2022/10/04 01:12:17;;;;;;;5.32;2.83;;;;;;;19.27;52.31;102234.19;5062857;28;20116;-64
2022/10/04 01:15:03;;;;;;;6.75;2.80;;;;;;;19.30;52.22;102235.81;5062680;28;20538;-65
2022/10/04 01:17:28;;;;;;;4.63;2.55;;;;;;;19.24;52.16;102221.19;5062618;28;20037;-63
2022/10/04 01:19:54;;;;;;;6.20;2.83;;;;;;;19.27;52.07;102228.91;5062822;28;20127;-64
2022/10/04 01:22:34;;;;;;;5.45;2.78;;;;;;;19.26;52.01;102226.38;5062307;28;20047;-64
2022/10/04 01:25:00;;;;;;;6.15;2.80;;;;;;;19.19;52.08;102215.34;5061823;28;20048;-63
2022/10/04 01:27:43;;;;;;;6.10;2.67;;;;;;;19.28;52.01;102222.69;5062475;28;20472;-62
2022/10/04 01:30:13;;;;;;;6.43;3.50;;;;;;;19.19;51.91;102208.25;5062344;28;20040;-64
2022/10/04 01:32:39;;;;;;;5.65;3.03;;;;;;;19.25;52.07;102216.72;5062142;28;20028;-63
2022/10/04 01:35:11;;;;;;;5.30;2.88;;;;;;;19.18;52.02;102203.06;5062381;28;20016;-64
2022/10/04 01:37:38;;;;;;;6.63;2.92;;;;;;;19.16;51.88;102211.09;5061974;28;20119;-63
2022/10/04 01:40:04;;;;;;;4.97;3.05;;;;;;;19.22;52.03;102217.78;5062268;28;20032;-65
2022/10/04 01:42:41;;;;;;;5.18;2.97;;;;;;;19.24;51.94;102218.53;5062138;28;20073;-62
2022/10/04 01:45:11;;;;;;;5.72;3.25;;;;;;;19.24;52.05;102218.53;5062010;28;20033;-63
2022/10/04 01:47:42;;;;;;;6.65;3.00;;;;;;;19.23;51.95;102210.69;5062036;28;20041;-65
2022/10/04 01:50:15;;;;;;;6.35;3.10;;;;;;;19.17;51.74;102193.47;5061932;28;20039;-63
2022/10/04 01:52:44;;;;;;;4.73;2.63;;;;;;;19.23;52.07;102216.00;5061625;28;20104;-63
2022/10/04 01:55:23;;;;;;;5.07;2.50;;;;;;;19.15;51.83;102204.13;5061840;28;20021;-64
2022/10/04 01:57:54;;;;;;;5.57;2.90;;;;;;;19.15;51.73;102205.91;5061797;28;20036;-63
2022/10/04 02:00:21;;;;;;;5.78;3.00;;;;;;;19.21;51.78;102210.81;5061429;28;20060;-63
2022/10/04 02:02:52;;;;;;;4.95;3.10;;;;;;;19.20;51.97;102204.69;5061667;28;20085;-63
2022/10/04 02:05:29;;;;;;;5.75;3.00;;;;;;;19.17;51.80;102202.22;5061319;28;20090;-62
2022/10/04 02:07:55;;;;;;;5.88;3.20;;;;;;;19.17;51.87;102201.41;5061823;28;20039;-62
2022/10/04 02:10:24;;;;;;;4.68;2.88;;;;;;;19.16;52.01;102205.81;5061458;28;20037;-63
2022/10/04 02:12:53;;;;;;;6.40;2.97;;;;;;;19.10;51.69;102181.56;5061439;28;20028;-64
2022/10/04 02:15:21;;;;;;;5.15;3.08;;;;;;;19.17;51.74;102191.66;5061158;28;20111;-64
2022/10/04 02:17:48;;;;;;;4.65;2.78;;;;;;;19.10;51.73;102174.50;5061247;28;20032;-63
2022/10/04 02:20:17;;;;;;;5.55;2.88;;;;;;;19.07;51.70;102166.75;5061851;28;20456;-63
2022/10/04 02:22:45;;;;;;;5.75;3.05;;;;;;;19.09;51.75;102161.38;5061584;28;20024;-62
2022/10/04 02:25:13;;;;;;;6.60;3.00;;;;;;;19.11;51.69;102173.56;5061702;28;20985;-63
2022/10/04 02:27:38;;;;;;;5.22;3.20;;;;;;;19.04;51.43;102151.09;5061128;28;20028;-63
2022/10/04 02:30:08;;;;;;;5.95;2.88;;;;;;;19.05;51.60;102152.81;5061131;28;20487;-63
2022/10/04 02:35:19;;;;;;;6.38;3.20;;;;;;;19.05;51.67;102146.69;5061329;28;20631;-63
2022/10/04 02:37:50;;;;;;;4.90;2.83;;;;;;;19.10;51.65;102147.22;5060972;28;20127;-63
2022/10/04 02:40:19;;;;;;;5.68;3.15;;;;;;;19.02;51.41;102132.72;5061780;28;20032;-63
2022/10/04 02:42:58;;;;;;;5.25;3.10;;;;;;;19.05;51.55;102131.66;5060871;28;20388;-65
2022/10/04 02:45:35;;;;;;;6.38;3.30;;;;;;;18.98;51.29;102122.47;5061183;28;20039;-62
2022/10/04 02:48:10;;;;;;;6.18;3.28;;;;;;;19.07;51.46;102128.94;5061107;28;20032;-63
2022/10/04 02:50:44;;;;;;;6.72;3.25;;;;;;;18.98;51.36;102109.25;5060855;28;20032;-64
2022/10/04 02:53:25;;;;;;;4.75;2.95;;;;;;;19.07;51.33;102121.84;5061185;28;20401;-64
2022/10/04 02:55:51;;;;;;;5.63;3.10;;;;;;;18.99;51.35;102100.34;5060941;28;20044;-64
2022/10/04 02:58:22;;;;;;;5.60;3.08;;;;;;;19.06;51.16;102106.09;5060788;28;20040;-65
2022/10/04 03:00:59;;;;;;;4.97;2.90;;;;;;;19.01;51.22;102096.69;5061122;28;21322;-64
2022/10/04 03:03:33;;;;;;;5.32;3.00;;;;;;;19.05;51.42;102097.31;5060900;28;20060;-64
2022/10/04 03:06:00;;;;;;;5.15;3.22;;;;;;;19.05;51.32;102102.59;5060928;28;20504;-63
2022/10/04 03:08:29;;;;;;;5.53;3.22;;;;;;;19.03;51.09;102086.00;5060913;28;20395;-64
2022/10/04 03:10:58;;;;;;;5.22;3.33;;;;;;;18.98;50.83;102082.84;5060846;28;20401;-64
2022/10/04 03:13:23;;;;;;;6.10;3.30;;;;;;;19.01;51.26;102083.47;5060845;28;20028;-64
2022/10/04 03:15:49;;;;;;;5.35;3.28;;;;;;;19.00;51.07;102083.56;5061018;28;20074;-63
2022/10/04 03:18:15;;;;;;;4.72;2.70;;;;;;;18.96;51.06;102088.22;5062370;28;20090;-63
2022/10/04 03:20:41;;;;;;;6.32;3.20;;;;;;;18.94;50.96;102078.69;5064982;28;20028;-63
2022/10/04 03:23:09;;;;;;;6.57;3.50;;;;;;;18.98;50.88;102086.31;5064553;28;20033;-64
2022/10/04 03:25:44;;;;;;;5.63;2.88;;;;;;;18.93;50.91;102082.25;5064886;28;20035;-63
2022/10/04 03:28:10;;;;;;;6.20;3.22;;;;;;;18.98;50.94;102085.47;5064713;28;20418;-64
2022/10/04 03:30:36;;;;;;;6.35;3.33;;;;;;;18.89;51.10;102071.06;5064475;28;20028;-63
2022/10/04 03:33:02;;;;;;;5.88;3.53;;;;;;;18.87;51.09;102078.25;5064476;28;20036;-64
2022/10/04 03:35:37;;;;;;;5.35;3.30;;;;;;;18.88;51.07;102068.53;5064594;28;20060;-62
2022/10/04 03:38:10;;;;;;;5.88;3.38;;;;;;;18.86;50.70;102065.97;5064324;28;20107;-64
2022/10/04 03:40:40;;;;;;;6.78;3.35;;;;;;;18.92;51.07;102075.31;5064184;28;20020;-64
2022/10/04 03:43:11;;;;;;;5.47;3.20;;;;;;;18.93;50.81;102069.94;5064225;28;20056;-64
2022/10/04 03:45:38;;;;;;;6.32;3.10;;;;;;;18.90;50.88;102064.84;5064283;28;20059;-63
2022/10/04 03:48:08;;;;;;;8.57;3.05;;;;;;;18.93;50.66;102069.06;5064327;28;20029;-64
2022/10/04 03:50:45;;;;;;;5.47;3.20;;;;;;;18.87;50.96;102051.84;5064348;28;20052;-63
2022/10/04 03:53:29;;;;;;;6.18;3.00;;;;;;;18.85;50.90;102048.47;5064430;28;20075;-63
2022/10/04 03:55:55;;;;;;;6.78;3.40;;;;;;;18.92;50.68;102056.81;5064066;28;20063;-64
2022/10/04 03:58:24;;;;;;;5.30;3.28;;;;;;;18.90;50.86;102051.63;5063822;28;20114;-63
2022/10/04 04:01:12;;;;;;;5.55;3.00;;;;;;;18.79;50.83;102031.16;5064333;28;20048;-63
2022/10/04 04:03:51;;;;;;;4.70;3.03;;;;;;;18.85;50.79;102046.66;5063787;28;20039;-65
2022/10/04 04:06:18;;;;;;;4.88;2.97;;;;;;;18.89;50.47;102052.56;5064072;28;20032;-63
2022/10/04 04:08:47;;;;;;;5.00;3.17;;;;;;;18.89;50.74;102049.94;5064177;28;20066;-64
2022/10/04 04:11:23;;;;;;;4.93;3.20;;;;;;;18.88;50.34;102050.88;5063830;28;20070;-65
2022/10/04 04:13:59;;;;;;;6.30;2.85;;;;;;;18.80;50.43;102038.16;5063944;28;20136;-64
2022/10/04 04:16:25;;;;;;;5.20;3.28;;;;;;;18.87;50.62;102059.75;5063886;28;20075;-65
2022/10/04 04:18:52;;;;;;;4.90;2.88;;;;;;;18.78;50.48;102036.56;5063239;28;20118;-64
2022/10/04 04:21:22;;;;;;;5.65;3.40;;;;;;;18.82;50.26;102046.81;5063757;28;20032;-63
2022/10/04 04:24:00;;;;;;;5.93;3.28;;;;;;;18.80;50.60;102043.44;5063555;28;20060;-63
2022/10/04 04:26:52;;;;;;;6.45;3.20;;;;;;;18.87;50.57;102056.25;5063648;28;20515;-64
2022/10/04 04:29:31;;;;;;;6.28;3.20;;;;;;;18.79;50.30;102049.66;5061971;28;20062;-64
2022/10/04 04:32:15;;;;;;;8.10;3.53;;;;;;;18.82;50.43;102049.47;5063376;28;20021;-64
2022/10/04 04:34:55;;;;;;;4.88;3.00;;;;;;;18.80;50.61;102047.84;5063727;28;20036;-64
2022/10/04 04:37:21;;;;;;;5.10;3.13;;;;;;;18.78;50.24;102047.13;5063306;28;20031;-64
2022/10/04 04:39:53;;;;;;;4.95;3.20;;;;;;;18.82;50.44;102051.25;5063026;28;20028;-64
2022/10/04 04:42:30;;;;;;;4.80;2.70;;;;;;;18.81;50.35;102058.31;5063111;28;20047;-63
2022/10/04 04:45:05;;;;;;;5.53;3.20;;;;;;;18.82;50.22;102045.97;5062311;28;20056;-62
2022/10/04 04:47:37;;;;;;;5.22;2.97;;;;;;;18.81;50.51;102039.81;5063383;28;20036;-63
2022/10/04 04:50:11;;;;;;;5.13;3.00;;;;;;;18.78;50.22;102040.03;5063296;28;20059;-63
2022/10/04 04:52:36;;;;;;;5.07;3.17;;;;;;;18.78;50.31;102033.91;5063192;28;20033;-62
2022/10/04 04:55:03;;;;;;;5.78;2.90;;;;;;;18.80;50.18;102032.88;5062923;28;20097;-63
2022/10/04 04:57:28;;;;;;;5.85;3.28;;;;;;;18.73;50.14;102015.72;5063297;28;20032;-63
2022/10/04 05:00:00;;;;;;;6.30;3.10;;;;;;;18.74;50.18;102021.84;5063022;28;20043;-63
2022/10/04 05:02:36;;;;;;;5.88;2.90;;;;;;;18.79;50.17;102025.88;5062771;28;20468;-62
2022/10/04 05:05:15;;;;;;;5.45;3.10;;;;;;;18.71;50.09;102009.69;5062724;28;20045;-62
2022/10/04 05:07:42;;;;;;;5.93;3.22;;;;;;;18.78;50.17;102031.28;5063114;28;20601;-63
2022/10/04 05:10:28;;;;;;;6.13;2.85;;;;;;;18.70;49.94;102018.56;5063305;28;20047;-64
2022/10/04 05:12:54;;;;;;;5.85;3.40;;;;;;;18.60;50.12;101996.34;5062674;28;20025;-64
2022/10/04 05:15:21;;;;;;;6.00;2.97;;;;;;;18.69;49.95;102022.13;5062480;28;20040;-64
2022/10/04 05:17:46;;;;;;;5.63;3.65;;;;;;;18.69;49.88;102022.13;5062888;28;20172;-63
2022/10/04 05:20:14;;;;;;;6.93;3.42;;;;;;;18.77;49.85;102029.56;5062541;28;20623;-64
2022/10/04 05:22:45;;;;;;;6.45;3.30;;;;;;;18.74;49.96;102037.69;5062492;28;20060;-64
2022/10/04 05:25:24;;;;;;;5.38;3.20;;;;;;;18.70;49.91;102029.13;5062281;28;20911;-64
2022/10/04 05:27:49;;;;;;;5.97;3.00;;;;;;;18.66;50.17;102023.19;5062420;28;20047;-63
2022/10/04 05:30:35;;;;;;;5.95;3.10;;;;;;;18.74;49.93;102033.28;5062627;28;20376;-63
2022/10/04 05:33:00;;;;;;;8.00;3.22;;;;;;;18.74;49.79;102038.56;5062333;28;20188;-64
2022/10/04 05:35:28;;;;;;;5.23;2.90;;;;;;;18.74;49.75;102022.72;5062649;28;20432;-64
2022/10/04 05:38:12;;;;;;;5.05;2.83;;;;;;;18.72;49.75;102024.56;5061661;28;20313;-64
2022/10/04 05:40:56;;;;;;;;;;;;;;;18.74;50.07;102032.41;5062116;28;20043;-61
2022/10/04 05:43:36;;;;;;;5.05;2.75;;;;;;;18.79;49.82;102032.97;5062125;28;19938;-62
2022/10/04 05:46:10;;;;;;;6.10;2.72;;;;;;;18.74;49.93;102022.72;5062247;28;20032;-63
2022/10/04 05:48:38;;;;;;;5.72;2.65;;;;;;;18.76;50.20;102023.44;5062041;28;20051;-63
2022/10/04 05:51:13;;;;;;;7.05;2.90;;;;;;;18.80;49.94;102027.59;5062346;28;20456;-63
2022/10/04 05:53:41;;;;;;;4.60;2.65;;;;;;;18.79;49.98;102028.53;5061719;28;20439;-62
2022/10/04 05:56:27;;;;;;;5.22;2.80;;;;;;;18.90;49.99;102049.00;5061996;28;20033;-62
2022/10/04 05:59:14;;;;;;;4.57;2.50;;;;;;;18.93;50.10;102054.06;5061843;28;20141;-64
2022/10/04 06:01:58;;;;;;;4.93;2.58;;;;;;;18.96;49.64;102053.00;5062181;28;20472;-65
2022/10/04 06:05:11;;;;;;;6.32;2.70;;;;;;;18.98;49.83;102051.97;5060491;28;20028;-65
2022/10/04 06:07:48;;;;;;;5.88;2.72;;;;;;;19.02;50.18;102056.09;5056117;28;20045;-63
2022/10/04 06:10:33;;;;;;;5.85;2.65;;;;;;;18.98;50.36;102035.28;5061937;28;20035;-63
2022/10/04 06:13:09;;;;;;;5.38;2.40;;;;;;;19.06;50.13;102043.53;5061398;28;20384;-62
2022/10/04 06:15:55;;;;;;;5.10;2.50;;;;;;;19.03;50.15;102049.03;5061804;28;20051;-62
2022/10/04 06:18:26;;;;;;;5.05;2.40;;;;;;;19.13;50.07;102058.03;5061275;28;20456;-62
2022/10/04 06:21:18;;;;;;;4.72;2.35;;;;;;;19.14;50.64;102065.00;5061653;28;20040;-62
2022/10/04 06:23:48;;;;;;;6.95;3.08;;;;;;;19.13;50.35;102049.25;5061658;28;20127;-64
2022/10/04 06:26:19;;;;;;;4.78;2.53;;;;;;;19.18;50.32;102057.72;5061819;28;20024;-64
2022/10/04 06:28:50;;;;;;;4.30;2.30;;;;;;;19.16;50.62;102052.53;5062079;28;20062;-63
2022/10/04 06:31:25;;;;;;;4.80;2.30;;;;;;;19.19;50.37;102054.97;5061712;28;20718;-63
2022/10/04 06:34:16;;;;;;;6.38;2.35;;;;;;;19.21;50.37;102062.81;5061643;28;20033;-62
2022/10/04 06:36:50;;;;;;;5.63;2.63;;;;;;;19.22;50.32;102053.94;5060934;28;20032;-63
2022/10/04 06:39:37;;;;;;;4.38;2.40;;;;;;;19.23;50.58;102052.97;5061122;28;20028;-62
2022/10/04 06:42:25;;;;;;;4.40;2.20;;;;;;;19.24;50.64;102048.56;5061301;28;20483;-62
2022/10/04 06:45:21;;;;;;;5.25;2.45;;;;;;;19.16;50.55;102030.56;5061554;28;20039;-63
2022/10/04 06:48:05;;;;;;;6.13;2.30;;;;;;;19.25;50.73;102044.94;5061331;28;20044;-64
2022/10/04 06:50:53;;;;;;;5.07;2.50;;;;;;;19.20;50.75;102040.81;5061326;28;20495;-63
2022/10/04 06:53:43;;;;;;;4.55;2.10;;;;;;;19.25;50.80;102042.28;5060217;28;20495;-62
2022/10/04 06:56:25;;;;;;;5.57;2.20;;;;;;;19.19;50.61;102033.00;5061055;28;20428;-63
2022/10/04 06:59:24;;;;;;;4.53;2.30;;;;;;;19.25;50.69;102048.44;5061063;28;20021;-64
2022/10/04 07:01:56;;;;;;;4.80;2.38;;;;;;;19.21;50.93;102039.03;5061143;28;20044;-64
2022/10/04 07:04:40;;;;;;;4.55;2.13;;;;;;;19.27;50.72;102046.53;5061100;28;20465;-65
2022/10/04 07:07:26;;;;;;;5.22;2.20;;;;;;;19.19;50.63;102033.84;5060961;28;20028;-67
2022/10/04 07:10:12;;;;;;;5.65;2.38;;;;;;;19.19;50.39;102022.44;5061128;28;20032;-65
2022/10/04 07:12:43;;;;;;;4.90;2.42;;;;;;;19.24;50.67;102037.97;5061037;28;20143;-64
2022/10/04 07:15:18;;;;;;;3.47;1.95;;;;;;;19.23;50.73;102034.47;5061359;28;20068;-66
2022/10/04 07:17:46;;;;;;;5.00;2.45;;;;;;;19.19;50.70;102022.44;5060987;28;20033;-62
2022/10/04 07:20:32;;;;;;;5.88;2.17;;;;;;;19.18;50.75;102032.16;5060874;28;20477;-63
2022/10/04 07:23:13;;;;;;;5.43;2.15;;;;;;;19.24;50.71;102028.25;5060844;28;20824;-68
2022/10/04 07:25:50;;;;;;;4.90;2.42;;;;;;;19.32;50.72;102019.81;5059445;28;20450;-64
2022/10/04 07:31:23;;;;;;;4.63;2.30;;;;;;;19.30;50.69;102025.19;5060951;28;20704;-71
2022/10/04 07:33:53;;;;;;;10.60;2.28;;;;;;;19.38;50.49;102036.09;5060731;28;20039;-68
2022/10/04 07:36:23;;;;;;;5.55;2.17;;;;;;;19.40;50.59;102028.06;5060438;28;20889;-68
2022/10/04 07:39:03;;;;;;;5.70;1.98;;;;;;;19.43;50.39;102033.13;5060800;28;20194;-69
2022/10/04 07:41:34;;;;;;;6.57;1.73;;;;;;;19.40;50.18;102034.19;5060669;28;20384;-69
2022/10/04 07:44:16;;;;;;;6.18;2.05;;;;;;;19.40;50.28;102035.97;5060607;28;20041;-69
2022/10/04 07:46:41;;;;;;;6.10;2.30;;;;;;;19.37;50.29;102029.09;5060583;28;20060;-68
2022/10/04 07:49:15;;;;;;;6.57;2.20;;;;;;;19.35;50.65;102038.94;5059511;28;20040;-68
2022/10/04 07:51:46;;;;;;;5.82;1.85;;;;;;;19.31;50.78;102053.31;5059775;28;20052;-71
2022/10/04 07:54:16;;;;;;;5.82;2.05;;;;;;;19.31;50.75;102041.88;5058912;28;20037;-69
2022/10/04 07:56:53;;;;;;;5.40;2.03;;;;;;;19.21;50.53;102010.78;5060035;28;20107;-71
2022/10/04 07:59:39;;;;;;;7.72;2.35;;;;;;;19.42;50.73;102031.44;5059991;28;20140;-69
2022/10/04 08:02:34;;;;;;;5.07;2.05;;;;;;;19.43;50.59;102019.06;5059579;28;20055;-69
2022/10/04 08:05:02;;;;;;;5.05;1.88;;;;;;;19.56;50.36;102030.50;5063033;28;20043;-71
2022/10/04 08:07:38;;;;;;;5.18;2.20;;;;;;;19.56;50.30;102009.34;5063496;28;20040;-69
2022/10/04 08:10:21;;;;;;;4.63;2.15;;;;;;;19.67;50.16;102030.59;5063131;28;20495;-70
2022/10/04 08:13:14;;;;;;;4.55;1.98;;;;;;;19.72;49.91;102028.47;5063363;28;20075;-68
2022/10/04 08:15:42;;;;;;;6.22;2.13;;;;;;;19.72;49.83;102020.53;5063249;28;20039;-70
2022/10/04 08:18:16;;;;;;;4.38;2.22;;;;;;;19.74;49.77;102013.34;5063063;28;20029;-67
2022/10/04 08:21:25;;;;;;;5.73;2.13;;;;;;;19.77;49.85;102020.25;5063291;28;20021;-65
2022/10/04 08:24:18;;;;;;;8.38;2.08;;;;;;;19.82;49.80;102023.44;5059761;28;20503;-68
2022/10/04 08:26:59;;;;;;;5.82;2.85;;;;;;;19.79;49.74;102004.28;5062918;28;20085;-69
2022/10/04 08:29:57;;;;;;;5.30;2.03;;;;;;;19.86;49.73;102014.31;5062520;28;20035;-67
2022/10/04 08:32:33;;;;;;;5.82;2.38;;;;;;;19.89;49.62;102018.56;5062470;28;20071;-68
2022/10/04 08:35:37;;;;;;;5.55;1.92;;;;;;;19.86;49.77;102014.31;5063090;28;20210;-67
2022/10/04 08:38:27;;;;;;;6.25;2.22;;;;;;;19.87;49.55;102013.38;5039796;28;20123;-67
2022/10/04 08:40:52;;;;;;;6.00;2.22;;;;;;;19.96;49.49;102029.56;5062196;28;20130;-69
2022/10/04 08:43:50;;;;;;;5.17;1.90;;;;;;;19.96;49.44;102018.97;5061306;28;20943;-70
2022/10/04 08:46:53;;;;;;;5.10;2.10;;;;;;;19.97;49.66;102028.59;5060782;28;20361;-68
2022/10/04 08:49:45;;;;;;;5.18;2.00;;;;;;;19.89;49.48;102011.47;5060912;28;20056;-68
2022/10/04 08:52:39;;;;;;;6.03;2.00;;;;;;;19.98;49.47;102025.84;5061268;28;20376;-71
2022/10/04 08:55:40;;;;;;;5.93;2.05;;;;;;;19.93;49.46;102012.09;5062540;28;20032;-69
2022/10/04 08:58:14;;;;;;;5.00;2.10;;;;;;;20.03;49.35;102026.38;5062533;28;20342;-66
2022/10/04 09:01:03;;;;;;;5.95;2.28;;;;;;;20.04;49.38;102028.03;5062156;28;20032;-71
2022/10/04 09:03:40;;;;;;;4.00;2.20;;;;;;;20.09;49.47;102025.06;5062241;28;20121;-70
2022/10/04 09:06:24;;;;;;;5.43;2.25;;;;;;;20.10;49.17;102024.13;5062225;28;20036;-71
2022/10/04 09:09:28;;;;;;;5.63;2.22;;;;;;;20.09;49.37;102030.38;5062281;28;20041;-71
2022/10/04 09:12:11;;;;;;;4.03;1.95;;;;;;;20.08;49.09;102031.34;5060596;28;20381;-69
2022/10/04 09:15:01;;;;;;;6.65;2.05;;;;;;;20.05;49.30;102036.84;5062332;28;20074;-69
2022/10/04 09:18:06;;;;;;;8.90;2.20;;;;;;;20.03;49.58;102034.31;5062127;28;20036;-69
2022/10/04 09:20:53;;;;;;;3.88;1.90;;;;;;;19.98;49.42;102025.00;5054455;28;20037;-68
2022/10/04 09:23:30;;;;;;;5.35;2.20;;;;;;;20.08;49.43;102031.34;5062735;28;20040;-71
2022/10/04 09:26:20;;;;;;;7.35;2.38;;;;;;;20.08;49.34;102028.69;5061511;28;20071;-69
2022/10/04 09:28:51;;;;;;;5.22;2.42;;;;;;;20.09;49.54;102019.78;5061880;28;20516;-70
2022/10/04 09:31:29;;;;;;;5.18;2.20;;;;;;;20.09;49.55;102017.13;5061613;28;20066;-70
2022/10/04 09:34:00;;;;;;;4.90;2.17;;;;;;;20.10;49.60;102017.03;5061308;28;20054;-72
2022/10/04 09:36:39;;;;;;;5.68;2.40;;;;;;;20.13;49.57;102013.31;5059947;28;20045;-69
2022/10/04 09:39:31;;;;;;;5.28;2.05;;;;;;;20.01;49.46;101988.59;5061380;28;20036;-72
2022/10/04 09:42:33;;;;;;;5.15;2.00;;;;;;;20.14;49.61;102007.09;5061308;28;20033;-70
2022/10/04 09:45:08;;;;;;;8.45;2.38;;;;;;;20.14;49.35;102004.44;5061163;28;20032;-69
2022/10/04 09:47:44;;;;;;;5.57;2.20;;;;;;;20.15;49.23;102000.81;5059797;28;20041;-67
2022/10/04 09:50:19;;;;;;;4.00;1.90;;;;;;;20.10;49.25;101985.25;5061427;28;20093;-67
2022/10/04 09:53:02;;;;;;;5.70;2.10;;;;;;;20.14;49.46;102001.78;5061412;28;20131;-70
2022/10/04 09:55:39;;;;;;;5.60;2.40;;;;;;;20.16;49.25;102004.34;5060849;28;20028;-71
2022/10/04 09:58:11;;;;;;;6.63;2.20;;;;;;;20.17;49.03;102004.22;5060142;28;20097;-72
2022/10/04 10:01:23;;;;;;;5.00;2.47;;;;;;;20.16;48.63;102010.47;5059634;28;20032;-73
2022/10/04 10:04:11;;;;;;;6.30;2.40;;;;;;;20.14;49.15;102003.56;5060762;28;20044;-71
2022/10/04 10:06:53;;;;;;;9.98;2.22;;;;;;;20.06;49.30;102004.13;5060768;28;20071;-69
2022/10/04 10:15:41;;;;;;;6.88;2.10;;;;;;;20.03;49.28;101984.03;5060765;28;20043;-73
2022/10/04 10:18:13;;;;;;;5.72;2.22;;;;;;;20.17;49.50;102000.72;5060922;28;20028;-69
2022/10/04 10:21:11;;;;;;;4.38;1.65;;;;;;;20.13;49.30;101989.50;5061204;28;20059;-71
2022/10/04 10:23:53;;;;;;;4.85;2.05;;;;;;;20.17;49.35;101992.78;5060870;28;20468;-69
2022/10/04 10:26:34;;;;;;;4.20;2.03;;;;;;;20.17;49.27;101980.41;5059170;28;20036;-69
2022/10/04 10:29:22;;;;;;;8.80;2.22;;;;;;;20.20;49.31;101979.31;5060076;28;20147;-71
2022/10/04 10:32:16;;;;;;;6.40;2.15;;;;;;;20.21;49.24;101981.84;5060936;28;20040;-69
2022/10/04 10:34:54;;;;;;;5.88;2.50;;;;;;;20.22;49.24;101970.31;5060578;28;20047;-69
2022/10/04 10:38:07;;;;;;;4.00;1.95;;;;;;;20.22;49.38;101975.63;5060516;28;20035;-69
2022/10/04 10:41:04;;;;;;;5.00;1.83;;;;;;;20.24;49.59;101986.94;5061079;28;20119;-71
2022/10/04 10:43:37;;;;;;;6.15;2.20;;;;;;;20.26;49.54;101981.53;5060388;28;20035;-67
2022/10/04 10:46:10;;;;;;;6.03;2.65;;;;;;;20.27;49.60;101986.72;5060409;28;20033;-73
2022/10/04 10:49:08;;;;;;;4.53;2.00;;;;;;;20.26;49.48;101979.72;5060241;28;20061;-70
2022/10/04 10:52:05;;;;;;;4.30;2.08;;;;;;;20.26;49.72;101992.94;5060601;28;20025;-67
2022/10/04 10:54:39;;;;;;;5.78;2.00;;;;;;;20.26;49.97;102000.06;5059432;28;20723;-69
2022/10/04 10:57:48;;;;;;;6.55;2.28;;;;;;;20.24;49.79;101994.88;5060164;28;20029;-67
2022/10/04 11:00:56;;;;;;;6.85;2.63;;;;;;;20.23;49.87;101997.63;5061169;28;20028;-68
2022/10/04 11:03:52;;;;;;;5.63;1.90;;;;;;;20.22;49.68;101986.19;5047797;28;20499;-68
2022/10/04 11:06:41;;;;;;;4.97;2.28;;;;;;;20.21;50.04;101978.38;5061146;28;20024;-69
2022/10/04 11:09:37;;;;;;;7.07;2.13;;;;;;;20.21;50.20;101986.31;5060991;28;20111;-65
2022/10/04 11:12:39;;;;;;;7.25;2.10;;;;;;;20.20;50.03;101971.38;5060694;28;20499;-66
2022/10/04 11:15:24;;;;;;;5.40;2.22;;;;;;;20.17;50.12;101961.88;5060763;28;20032;-66
2022/10/04 11:18:11;;;;;;;6.13;2.30;;;;;;;20.15;50.20;101960.28;5060946;28;20037;-66
2022/10/04 11:20:58;;;;;;;5.25;2.58;;;;;;;20.14;50.29;101956.81;5060908;28;20028;-66
2022/10/04 11:23:50;;;;;;;6.25;2.03;;;;;;;20.15;50.44;101958.47;5060360;28;20028;-67
2022/10/04 11:26:25;;;;;;;5.95;2.10;;;;;;;20.13;50.27;101949.81;5060886;28;20148;-68
2022/10/04 11:29:27;;;;;;;4.43;2.00;;;;;;;20.12;50.36;101953.41;5060876;28;20037;-71
2022/10/04 11:31:58;;;;;;;6.57;2.33;;;;;;;20.11;50.41;101949.91;5059889;28;20607;-66
2022/10/04 11:34:56;;;;;;;6.55;2.28;;;;;;;20.11;50.36;101943.78;5060959;28;20043;-67
2022/10/04 11:37:49;;;;;;;5.13;2.17;;;;;;;20.10;50.36;101950.03;5060569;28;20242;-67
2022/10/04 11:40:48;;;;;;;4.78;2.35;;;;;;;20.09;50.67;101943.91;5064076;28;20068;-67
2022/10/04 11:43:23;;;;;;;4.75;2.33;;;;;;;20.07;49.28;101937.00;5064136;28;20434;-69
2022/10/04 11:46:13;;;;;;;4.57;2.30;;;;;;;20.03;50.10;101939.03;5064660;28;20070;-67
2022/10/04 11:48:52;;;;;;;6.72;2.22;;;;;;;19.94;50.44;101918.53;5064320;28;20037;-65
2022/10/04 11:51:36;;;;;;;5.65;2.50;;;;;;;20.00;50.64;101931.31;5064653;28;20133;-68
2022/10/04 11:54:20;;;;;;;5.50;2.08;;;;;;;19.93;50.58;101906.25;5064048;28;20107;-67
2022/10/04 11:57:18;;;;;;;5.47;2.20;;;;;;;20.00;50.67;101918.09;5064189;28;20021;-66
2022/10/04 12:00:14;;;;;;;6.55;2.40;;;;;;;19.90;50.67;101904.69;5063543;28;20120;-71
2022/10/04 12:03:10;;;;;;;4.78;2.20;;;;;;;20.00;50.82;101923.38;5063561;28;20024;-69
2022/10/04 12:06:08;;;;;;;5.90;2.35;;;;;;;20.01;50.96;101921.59;5063302;28;20039;-69
2022/10/04 12:08:48;;;;;;;4.88;2.30;;;;;;;20.05;51.11;101925.72;5062071;28;20116;-73
2022/10/04 12:12:35;;;;;;;5.53;2.50;;;;;;;20.09;50.87;101930.66;5063106;28;20027;-70
2022/10/04 12:14:37;;;;;;;5.50;2.70;;;;;;;20.08;50.78;101910.44;5062691;28;20384;-70
2022/10/04 12:17:09;;;;;;;6.95;2.28;;;;;;;20.23;50.74;101932.28;5063199;28;20472;-67
2022/10/04 12:19:57;;;;;;;6.10;2.05;;;;;;;20.21;50.48;101910.38;5063016;28;20418;-70
2022/10/04 12:22:54;;;;;;;4.28;1.90;;;;;;;20.23;50.51;101902.34;5062970;28;20024;-68
2022/10/04 12:25:30;;;;;;;5.53;2.85;;;;;;;20.21;50.75;101899.81;5062794;28;20130;-67
2022/10/04 12:28:22;;;;;;;5.97;2.00;;;;;;;20.26;50.74;101905.59;5061989;28;20077;-69
2022/10/04 12:31:15;;;;;;;5.43;2.00;;;;;;;20.24;50.71;101894.28;5061786;28;20033;-66